• Join FlightAware (Why Join?)
  • Login
  • US Flag 
08:29PM EDT


 

Airport Tracker/Info


-or-


 

Live Flight TrackerFlight Track Log ✈ DAL390 ✈ 08-May-2013 ✈ MMSD / SJD - KATL

Flight Track Log - Related Links

Times and Time Zones

All times are in EDT time to prevent confusion due to time zone crossing. See the DAL390 flight status page for this flight to view local times or setup timezone preferences in your user account.

Time Position Orientation Groundspeed Altitude Reporting Facility
EDT Latitude Longitude Course Direction KTS MPH feet Rate Location/Type
03:27PM 23.2730 -109.4765 62° Northeast  Level FlightAware Approximate
03:28PM 23.3334 -109.3541 62° Northeast  Level FlightAware Approximate
03:29PM 23.3937 -109.2315 62° Northeast  Level FlightAware Approximate
03:30PM 23.4539 -109.1089 62° Northeast  Level FlightAware Approximate
03:31PM 23.5141 -108.9861 62° Northeast  Level FlightAware Approximate
03:32PM 23.5741 -108.8632 62° Northeast  Level FlightAware Approximate
03:33PM 23.6341 -108.7402 62° Northeast  Level FlightAware Approximate
03:34PM 23.6939 -108.6171 62° Northeast  Level FlightAware Approximate
03:35PM 23.7536 -108.4939 62° Northeast  Level FlightAware Approximate
03:36PM 23.8133 -108.3706 62° Northeast  Level FlightAware Approximate
03:37PM 23.8728 -108.2472 62° Northeast  Level FlightAware Approximate
03:37PM 23.1580 -108.6820 62° Northeast 437 503 17,500  Level FlightAware
03:38PM 23.9323 -108.1236 62° Northeast  Level FlightAware Approximate
03:38PM 23.1590 -108.6080 89° East 444 511 18,900  Level FlightAware
03:39PM 23.1600 -108.4650 90° East 465 535 21,000 1,980 Climbing FlightAware
03:40PM 23.1650 -108.3590 87° East 475 547 22,400 1,860 Climbing FlightAware
03:40PM 23.1910 -108.2720 72° East 479 551 23,700 1,860 Climbing FlightAware
03:41PM 23.2260 -108.1790 68° East 488 562 24,900 1,680 Climbing FlightAware
03:42PM 23.2660 -108.0740 67° East 499 574 26,100 1,260 Climbing FlightAware
03:43PM 23.3010 -107.9810 68° East 517 595 26,700 1,020 Climbing FlightAware
03:43PM 23.3410 -107.8710 68° East 529 609 27,600 1,380 Climbing FlightAware
03:44PM 23.3770 -107.7730 68° East 531 611 28,700 1,620 Climbing FlightAware
03:45PM 23.4130 -107.6750 68° East 531 611 29,800 1,380 Climbing FlightAware
03:45PM 23.4560 -107.5580 68° East 541 623 30,700 1,200 Climbing FlightAware
03:46PM 23.4930 -107.4580 68° East 544 626 31,500 1,260 Climbing FlightAware
03:47PM 23.5310 -107.3560 68° East 545 627 32,400 1,440 Climbing FlightAware
03:47PM 23.5720 -107.2440 68° East 545 627 33,600 1,620 Climbing FlightAware
03:48PM 23.6150 -107.1260 68° East 536 617 34,900 1,560 Climbing FlightAware
03:49PM 23.6460 -107.0410 68° East 535 616 35,700 1,260 Climbing FlightAware
03:50PM 23.6870 -106.9300 68° East 535 616 36,600 1,080 Climbing FlightAware
03:50PM 23.7240 -106.8270 69° East 537 618 37,300 1,080 Climbing FlightAware
03:51PM 23.7650 -106.7150 68° East 533 613 38,200 1,080 Climbing FlightAware
03:52PM 23.8060 -106.6010 69° East 527 606 39,000 540 Climbing FlightAware
03:52PM 23.8410 -106.5030 69° East 528 608 39,000  Level FlightAware
03:53PM 23.8810 -106.3920 68° East 528 608 39,000  Level FlightAware
03:54PM 23.9160 -106.2940 69° East 528 608 39,000  Level FlightAware
03:54PM 23.9510 -106.1950 69° East 528 608 39,000  Level FlightAware
03:55PM 23.9920 -106.0810 68° East 528 608 39,000  Level FlightAware
03:56PM 24.0270 -105.9810 69° East 528 608 39,000  Level FlightAware
03:57PM 24.0630 -105.8800 69° East 528 608 39,000  Level FlightAware
03:57PM 24.0960 -105.7850 69° East 530 610 39,000  Level FlightAware
03:58PM 24.1370 -105.6700 69° East 531 611 39,000  Level FlightAware
03:59PM 24.1760 -105.5610 69° East 527 606 39,000  Level FlightAware
03:59PM 24.2130 -105.4570 69° East 525 604 39,000  Level FlightAware
04:00PM 24.2580 -105.3670 61° Northeast 519 597 39,000  Level FlightAware
04:01PM 24.3130 -105.2720 58° Northeast 521 600 39,000  Level FlightAware
04:01PM 24.3700 -105.1740 57° Northeast 522 601 39,000  Level FlightAware
04:02PM 24.4270 -105.0770 57° Northeast 523 602 39,000  Level FlightAware
04:03PM 24.4790 -104.9870 58° Northeast 526 605 39,000  Level FlightAware
04:04PM 24.5370 -104.8860 58° Northeast 523 602 39,000  Level FlightAware
04:04PM 24.5890 -104.7960 58° Northeast 521 600 39,000  Level FlightAware
04:05PM 24.6350 -104.7150 58° Northeast 521 600 39,000  Level FlightAware
04:06PM 24.7170 -104.5730 58° Northeast 518 596 39,000  Level FlightAware
04:07PM 24.7680 -104.4840 58° Northeast 517 595 39,000  Level FlightAware
04:07PM 24.8190 -104.3960 57° Northeast 518 596 39,000  Level FlightAware
04:08PM 24.8860 -104.2790 58° Northeast 520 598 39,000  Level FlightAware
04:09PM 24.9310 -104.2040 56° Northeast 520 598 39,000  Level FlightAware
04:10PM 24.9750 -104.1280 57° Northeast 520 598 39,000  Level FlightAware
04:10PM 25.0310 -104.0330 57° Northeast 520 598 39,000  Level FlightAware
04:11PM 25.0750 -103.9580 57° Northeast 520 598 39,000  Level FlightAware
04:12PM 25.1200 -103.8820 57° Northeast 520 598 39,000  Level FlightAware
04:12PM 25.1640 -103.8060 57° Northeast 520 598 39,000  Level FlightAware
04:13PM 25.2090 -103.7300 57° Northeast 520 598 39,000  Level FlightAware
04:14PM 25.2650 -103.6350 57° Northeast 520 598 39,000  Level FlightAware
04:15PM 25.3090 -103.5600 57° Northeast 520 598 39,000  Level FlightAware
04:15PM 25.3540 -103.4840 57° Northeast 520 598 39,000  Level FlightAware
04:16PM 25.3980 -103.4080 57° Northeast 520 598 39,000  Level FlightAware
04:17PM 25.4430 -103.3320 57° Northeast 520 598 39,000  Level FlightAware
04:17PM 25.4870 -103.2560 57° Northeast 520 598 39,000 60 Level FlightAware
04:20PM 25.6368 -102.9780 59° Northeast  Level Estimated
04:21PM 25.7018 -102.8569 59° Northeast  Level Estimated
04:22PM 25.7667 -102.7357 59° Northeast  Level Estimated
04:23PM 25.8315 -102.6144 59° Northeast  Level Estimated
04:24PM 25.8962 -102.4929 59° Northeast  Level Estimated
04:25PM 25.9607 -102.3713 59° Northeast  Level Estimated
04:26PM 26.0252 -102.2496 59° Northeast  Level Estimated
04:27PM 26.0896 -102.1277 60° Northeast  Level Estimated
04:28PM 26.1539 -102.0057 60° Northeast  Level Estimated
04:29PM 26.2180 -101.8835 60° Northeast  Level Estimated
04:30PM 26.2821 -101.7613 60° Northeast  Level Estimated
04:31PM 26.3461 -101.6388 60° Northeast  Level Estimated
04:32PM 26.4099 -101.5163 60° Northeast  Level Estimated
04:33PM 26.4737 -101.3936 60° Northeast  Level Estimated
04:34PM 26.5373 -101.2708 60° Northeast  Level Estimated
04:35PM 26.6009 -101.1478 60° Northeast  Level Estimated
04:36PM 26.6643 -101.0247 60° Northeast  Level Estimated
04:37PM 26.7276 -100.9015 60° Northeast  Level Estimated
04:38PM 26.7850 -100.7920 60° Northeast  Level FlightAware Approximate
04:38PM 27.0819 -100.2525 60° Northeast 516 594 40,900  Level Houston Center
04:39PM 26.8422 -100.6824 60° Northeast  Level FlightAware Approximate
04:39PM 27.1697 -100.0867 59° Northeast 514 592 41,000  Level Houston Center
04:40PM 26.8994 -100.5726 60° Northeast  Level FlightAware Approximate
04:40PM 27.2422 -99.9486 59° Northeast 513 590 40,900  Level Houston Center
04:41PM 26.9565 -100.4627 60° Northeast  Level FlightAware Approximate
04:41PM 27.3122 -99.8097 60° Northeast 513 590 40,900  Level Houston Center
04:42PM 27.0135 -100.3528 60° Northeast  Level FlightAware Approximate
04:42PM 27.3847 -99.6714 59° Northeast 513 590 41,000  Level Houston Center
04:43PM 27.0704 -100.2427 60° Northeast  Level FlightAware Approximate
04:43PM 27.4503 -99.5272 63° Northeast 516 594 40,900  Level Houston Center
04:44PM 27.4911 -99.3664 74° East 534 615 40,900  Level Houston Center
04:45PM 27.5461 -99.1747 72° East 533 613 40,900  Level Houston Center
04:46PM 27.6081 -99.0192 66° East 531 611 40,900  Level Houston Center
04:51PM 27.9180 -98.1920 66° East 516 594 41,000  Climbing FlightAware
04:52PM 27.9560 -98.0920 67° East 517 595 41,000  Level FlightAware
04:53PM 27.9960 -97.9850 67° East 518 596 41,000  Level FlightAware
04:54PM 28.0380 -97.8700 67° East 518 596 41,000  Level FlightAware
04:54PM 28.0760 -97.7700 67° East 520 598 41,000  Level FlightAware
04:55PM 28.1160 -97.6590 68° East 520 598 41,000  Level FlightAware
04:56PM 28.1540 -97.5580 67° East 523 602 41,000  Level FlightAware
04:56PM 28.1890 -97.4630 67° East 523 602 41,000  Level FlightAware
04:57PM 28.2280 -97.3560 68° East 521 600 41,000  Level FlightAware
04:58PM 28.2760 -97.2250 67° East 520 598 41,000  Level FlightAware
04:59PM 28.3180 -97.1080 68° East 517 595 41,000  Level FlightAware
04:59PM 28.3620 -96.9890 67° East 518 596 41,000  Level FlightAware
05:00PM 28.4070 -96.8680 67° East 518 596 41,000  Level FlightAware
05:01PM 28.4380 -96.7820 68° East 518 596 41,000  Level FlightAware
05:02PM 28.4890 -96.6370 68° East 518 596 41,000  Level FlightAware
05:02PM 28.5240 -96.5390 68° East 519 597 41,000  Level FlightAware
05:03PM 28.5630 -96.4300 68° East 518 596 41,000  Level FlightAware
05:04PM 28.6000 -96.3270 68° East 515 593 41,000  Level FlightAware
05:04PM 28.6350 -96.2280 68° East 512 589 41,000  Level FlightAware
05:05PM 28.6747 -96.1161 68° East 510 587 41,000  Level FlightAware ADS-B
05:06PM 28.7017 -96.0399 68° East 508 585 41,000  Level FlightAware ADS-B
05:06PM 28.7283 -95.9647 68° East 507 583 41,000  Level FlightAware ADS-B
05:07PM 28.7546 -95.8902 68° East 505 581 41,000  Level FlightAware ADS-B
05:07PM 28.7814 -95.8140 68° East 503 579 41,000  Level FlightAware ADS-B
05:08PM 28.8099 -95.7329 68° East 502 578 41,000  Level FlightAware ADS-B
05:09PM 28.8580 -95.5940 68° East 502 578 41,000  Level FlightAware
05:09PM 28.8930 -95.4970 68° East 504 580 41,000  Level FlightAware
05:10PM 28.9270 -95.3970 69° East 505 581 41,000  Level FlightAware
05:11PM 28.9698 -95.2742 68° East 502 578 41,000  Level FlightAware ADS-B
05:11PM 28.9956 -95.1996 68° East 503 579 41,000  Level FlightAware ADS-B
05:12PM 29.0212 -95.1253 68° East 503 579 41,000  Level FlightAware ADS-B
05:12PM 29.0469 -95.0508 68° East 504 580 41,000  Level FlightAware ADS-B
05:13PM 29.0727 -94.9759 68° East 505 581 41,000  Level FlightAware ADS-B
05:13PM 29.0997 -94.8973 69° East 505 581 41,000  Level FlightAware ADS-B
05:14PM 29.1252 -94.8228 69° East 505 581 41,000  Level FlightAware ADS-B
05:14PM 29.1508 -94.7478 69° East 505 581 41,000  Level FlightAware ADS-B
05:15PM 29.1782 -94.6673 69° East 504 580 41,000  Level FlightAware ADS-B
05:15PM 29.2036 -94.5927 69° East 501 577 41,000  Level FlightAware ADS-B
05:16PM 29.2286 -94.5189 69° East 496 571 41,000  Level FlightAware ADS-B
05:16PM 29.2556 -94.4390 69° East 495 570 41,000  Level FlightAware ADS-B
05:17PM 29.2803 -94.3655 69° East 495 570 41,000  Level FlightAware ADS-B
05:18PM 29.3057 -94.2901 69° East 495 570 41,000  Level FlightAware ADS-B
05:18PM 29.3307 -94.2157 69° East 494 568 41,000  Level FlightAware ADS-B
05:19PM 29.3576 -94.1353 69° East 493 567 41,000  Level FlightAware ADS-B
05:19PM 29.3829 -94.0593 69° East 493 567 41,000  Level FlightAware ADS-B
05:20PM 29.4083 -93.9834 69° East 492 566 41,000  Level FlightAware ADS-B
05:20PM 29.4353 -93.9027 69° East 491 565 41,000  Level FlightAware ADS-B
05:21PM 29.4606 -93.8271 69° East 490 564 41,000  Level FlightAware ADS-B
05:21PM 29.4852 -93.7530 69° East 489 563 41,000  Level FlightAware ADS-B
05:22PM 29.5096 -93.6791 69° East 487 560 41,000  Level FlightAware ADS-B
05:22PM 29.5344 -93.6044 69° East 487 560 41,000  Level FlightAware ADS-B
05:23PM 29.5593 -93.5288 69° East 485 558 41,000  Level FlightAware ADS-B
05:23PM 29.5845 -93.4527 69° East 484 557 41,000  Level FlightAware ADS-B
05:24PM 29.6114 -93.3709 69° East 485 558 41,000  Level FlightAware ADS-B
05:24PM 29.6381 -93.2891 69° East 489 563 41,000  Level FlightAware ADS-B
05:25PM 29.6623 -93.2147 69° East 492 566 41,000  Level FlightAware ADS-B
05:25PM 29.6863 -93.1408 69° East 492 566 41,000  Level FlightAware ADS-B
05:26PM 29.7243 -93.0235 70° East 491 565 41,000  Level FlightAware ADS-B
05:27PM 29.7623 -92.9060 70° East 490 564 41,000  Level FlightAware ADS-B
05:28PM 29.8275 -92.7048 69° East 490 564 41,000  Level FlightAware ADS-B
05:29PM 29.8783 -92.5460 70° East 491 565 41,000  Level FlightAware ADS-B
05:30PM 29.9090 -92.4498 70° East 491 565 41,000  Level FlightAware ADS-B
05:31PM 29.9329 -92.3749 70° East 488 562 41,000  Level FlightAware ADS-B
05:31PM 29.9616 -92.2847 70° East 487 560 41,000  Level FlightAware ADS-B
05:32PM 29.9863 -92.2071 70° East 488 562 41,000  Level FlightAware ADS-B
05:32PM 30.0106 -92.1297 70° East 488 562 41,000  Level FlightAware ADS-B
05:33PM 30.0607 -91.9696 70° East 488 562 41,000  Level FlightAware ADS-B
05:36PM 30.1683 -91.6259 70° East 484 557 41,000  Level FlightAware ADS-B
05:36PM 30.1919 -91.5498 70° East 483 556 41,000  Level FlightAware ADS-B
05:41PM 30.3934 -90.8941 70° East 481 554 41,000  Level FlightAware ADS-B
05:41PM 30.4176 -90.8137 71° East 481 554 41,000  Level FlightAware ADS-B
05:42PM 30.4402 -90.7387 71° East 481 554 41,000  Level FlightAware ADS-B
05:43PM 30.4724 -90.6324 71° East 481 554 41,000  Level FlightAware ADS-B
05:46PM 30.6240 -90.1270 71° East 478 550 41,000  Level FlightAware
05:47PM 30.6480 -90.0440 71° East 478 550 41,000  Level FlightAware
05:48PM 30.6940 -89.8940 70° East 478 550 41,000  Level FlightAware
05:49PM 30.7260 -89.7910 70° East 478 550 41,000  Level FlightAware
05:49PM 30.7520 -89.7090 70° East 478 550 41,000  Level FlightAware
05:50PM 30.7770 -89.6270 70° East 478 550 41,000  Level FlightAware
05:51PM 30.8030 -89.5450 70° East 478 550 41,000  Level FlightAware
05:51PM 30.8290 -89.4630 70° East 478 550 41,000  Level FlightAware
05:52PM 30.8550 -89.3800 70° East 478 550 41,000  Level FlightAware
05:53PM 30.8800 -89.2980 70° East 478 550 41,000  Level FlightAware
05:53PM 30.9060 -89.2160 70° East 478 550 41,000  Level FlightAware
05:54PM 30.9320 -89.1330 70° East 478 550 41,000  Level FlightAware
05:55PM 30.9640 -89.0300 70° East 478 550 41,000  Level FlightAware
05:55PM 30.9900 -88.9480 70° East 478 550 41,000  Level FlightAware
05:56PM 31.0150 -88.8650 71° East 478 550 41,000  Level FlightAware
05:57PM 31.0410 -88.7830 70° East 478 550 41,000 -120 Level FlightAware
05:57PM 31.1433 -88.5456 70° East 457 526 40,900 -120 Descending Houston Center
05:58PM 31.2078 -88.4164 60° Northeast 461 531 40,900  Level Houston Center
05:59PM 31.2700 -88.2903 60° Northeast 467 537 41,000  Climbing Houston Center
06:00PM 31.3492 -88.1300 60° Northeast 469 540 41,000  Level Houston Center
06:01PM 31.4161 -88.0000 59° Northeast 459 528 41,000  Level Atlanta Center
06:02PM 31.4889 -87.8767 55° Northeast 459 528 41,000  Level Atlanta Center
06:03PM 31.5633 -87.7556 54° Northeast 453 521 41,000 -120 Level Atlanta Center
06:04PM 31.6358 -87.6342 55° Northeast 453 521 40,800 -600 Descending Atlanta Center
06:05PM 31.7103 -87.5100 55° Northeast 458 527 39,800 -960 Descending Atlanta Center
06:06PM 31.7869 -87.3861 54° Northeast 463 533 38,900 -1,140 Descending Atlanta Center
06:07PM 31.8583 -87.2883 49° Northeast 456 525 37,600 -1,500 Descending Atlanta Center
06:08PM 31.9489 -87.1817 45° Northeast 451 519 36,000 -1,620 Descending Atlanta Center
06:09PM 32.0392 -87.0744 45° Northeast 451 519 34,400 -1,680 Descending Atlanta Center
06:10PM 32.1153 -86.9494 54° Northeast 451 519 32,700 -1,680 Descending Atlanta Center
06:11PM 32.1828 -86.8242 57° Northeast 461 531 31,100 -1,740 Descending Atlanta Center
06:12PM 32.2653 -86.6842 55° Northeast 461 531 29,300 -1,800 Descending Atlanta Center
06:13PM 32.3347 -86.5561 57° Northeast 467 537 27,600 -1,200 Descending Atlanta Center
06:14PM 32.4061 -86.4278 57° Northeast 467 537 27,000 -300 Descending Atlanta Center
06:15PM 32.4669 -86.2939 62° Northeast 461 531 27,000  Level Atlanta Center
06:16PM 32.5444 -86.1603 55° Northeast 469 540 27,000 -600 Level Atlanta Center
06:17PM 32.6136 -86.0264 58° Northeast 474 545 25,900 -1,260 Descending Atlanta Center
06:18PM 32.6844 -85.8997 56° Northeast 469 540 24,500 -1,080 Descending Atlanta Center
06:19PM 32.7508 -85.7728 58° Northeast 464 534 23,800 -1,020 Descending Atlanta Center
06:20PM 32.8175 -85.6431 59° Northeast 459 528 22,500 -1,320 Descending Atlanta Center
06:21PM 32.8836 -85.5156 58° Northeast 454 522 21,200 -2,100 Descending Atlanta Center
06:22PM 32.9497 -85.3928 57° Northeast 444 511 18,400 -2,520 Descending Atlanta Center
06:23PM 33.0136 -85.2750 57° Northeast 439 505 16,200 -1,020 Descending Atlanta Center
06:29PM 33.4250 -84.7070 57° Northeast 390 449 11,900 -720 Descending FlightAware
06:30PM 33.4690 -84.6480 48° Northeast 343 395 11,900  Level FlightAware
06:30PM 33.5110 -84.5910 49° Northeast 342 394 11,900 -420 Level FlightAware
06:31PM 33.5430 -84.5270 59° Northeast 261 300 11,300 -1,440 Descending FlightAware
06:32PM 33.5460 -84.4530 87° East 253 291 9,400 -2,160 Descending FlightAware
06:33PM 33.5450 -84.3940 91° East 252 290 7,900 -2,160 Descending FlightAware
06:33PM 33.5450 -84.3570 90° East 247 284 6,900 -1,200 Descending FlightAware
06:34PM 33.5450 -84.3150 90° East 247 284 6,600 -2,100 Descending FlightAware
06:34PM 33.5456 -84.2631 90° East 251 289 4,600 -3,480 Descending Atlanta Center
06:35PM 33.5500 -84.2333 80° East 246 283 3,800 -2,700 Descending Atlanta TRACON